createdAt,value
2017-08-16T12:13:37.629Z,19
2017-08-16T12:14:39.430Z,19
2017-08-16T12:15:41.659Z,13
2017-08-16T12:15:50.106Z,10
2017-08-16T12:16:52.468Z,19
2017-08-16T12:17:54.729Z,19
2017-08-16T12:18:57.470Z,19
2017-08-16T12:19:59.893Z,19
2017-08-16T12:21:02.095Z,12
2017-08-16T12:22:04.210Z,15
2017-08-16T12:23:06.458Z,19
2017-08-16T12:24:09.073Z,19
2017-08-16T12:25:11.246Z,19
2017-08-16T12:26:13.310Z,19
2017-08-16T12:27:15.815Z,18
2017-08-16T12:28:18.178Z,18
2017-08-16T12:29:20.972Z,19
2017-08-16T12:30:23.200Z,17
2017-08-16T12:31:25.377Z,19
2017-08-16T12:31:31.216Z,7
2017-08-16T12:32:33.415Z,18
2017-08-16T12:33:35.819Z,19
2017-08-16T12:38:02.790Z,20
2017-08-16T12:38:09.049Z,20
2017-08-16T12:39:10.069Z,20
2017-08-16T12:39:26.931Z,18
2017-08-16T12:40:27.176Z,19
2017-08-16T12:41:27.389Z,19
2017-08-16T12:42:28.388Z,19
2017-08-16T12:43:30.176Z,21
2017-08-16T12:44:34.388Z,21
2017-08-16T12:46:22.242Z,16
2017-08-16T12:47:24.544Z,19
2017-08-16T12:48:26.984Z,16
2017-08-16T12:49:29.927Z,20
2017-08-16T12:50:32.334Z,20
2017-08-16T12:51:34.254Z,20
2017-08-16T12:52:36.713Z,19
2017-08-16T12:53:40.106Z,19
2017-08-16T12:54:42.469Z,19
2017-08-16T12:55:45.053Z,19
2017-08-16T12:56:47.555Z,19
2017-08-16T12:57:49.935Z,17
2017-08-16T12:58:52.830Z,17
2017-08-16T12:59:55.315Z,19
2017-08-16T13:00:57.676Z,17
2017-08-16T13:02:00.132Z,17
2017-08-16T13:03:02.552Z,15
2017-08-16T13:04:05.572Z,19
2017-08-16T13:05:07.934Z,19
2017-08-16T13:06:10.275Z,19
2017-08-16T13:07:12.619Z,17
2017-08-16T13:08:14.922Z,18
2017-08-16T13:09:17.805Z,17
2017-08-16T13:10:20.382Z,19
2017-08-16T13:11:22.645Z,18
2017-08-16T13:12:25.336Z,19
2017-08-16T13:13:27.800Z,17
2017-08-16T13:14:30.800Z,19
2017-08-16T13:15:33.459Z,19
2017-08-16T13:16:36.082Z,19
2017-08-16T13:17:38.543Z,17
2017-08-16T13:18:40.983Z,17
2017-08-16T13:19:44.043Z,19
2017-08-16T13:20:46.443Z,19
2017-08-16T13:21:48.663Z,19
2017-08-16T13:22:51.110Z,19
2017-08-16T13:23:53.973Z,19
2017-08-16T13:24:56.928Z,19
2017-08-16T13:25:59.328Z,19
2017-08-16T13:27:01.586Z,19
2017-08-16T13:28:04.746Z,19
2017-08-16T13:29:06.828Z,19
2017-08-16T13:30:09.572Z,19
2017-08-16T13:31:12.011Z,19
2017-08-16T13:32:14.290Z,18
2017-08-16T13:33:17.073Z,19
2017-08-16T13:34:19.397Z,19
2017-08-16T13:35:22.256Z,17
2017-08-16T13:36:24.648Z,19
2017-08-16T13:37:26.973Z,19
2017-08-16T13:38:29.585Z,18
2017-08-16T13:39:32.012Z,19
2017-08-16T13:40:34.776Z,17
2017-08-16T13:41:36.982Z,19
2017-08-16T13:42:39.293Z,18
2017-08-16T13:43:41.623Z,19
2017-08-16T13:44:44.072Z,15
2017-08-16T13:45:46.819Z,19
2017-08-16T13:46:49.062Z,18
2017-08-16T13:47:51.374Z,17
2017-08-16T13:48:53.682Z,15
2017-08-16T13:49:56.179Z,19
2017-08-16T13:50:59.404Z,18
2017-08-16T13:52:02.381Z,19
2017-08-16T13:53:04.944Z,19
2017-08-16T13:54:07.505Z,17
2017-08-16T13:55:09.864Z,18
2017-08-16T13:56:13.225Z,18
2017-08-16T13:57:15.565Z,15
2017-08-16T13:58:18.168Z,19
2017-08-16T13:59:20.545Z,18
2017-08-16T14:00:23.229Z,19
2017-08-16T14:01:26.153Z,17
2017-08-16T14:02:28.634Z,18
2017-08-16T14:03:31.068Z,18
2017-08-16T14:04:33.433Z,18
2017-08-16T14:05:35.875Z,18
2017-08-16T14:06:38.778Z,19
2017-08-16T14:07:41.079Z,18
2017-08-16T14:08:43.399Z,17
2017-08-16T14:09:46.237Z,13
2017-08-16T14:10:48.902Z,18
2017-08-16T14:11:51.845Z,13
2017-08-16T14:12:54.158Z,19
2017-08-16T14:13:56.625Z,18
2017-08-16T14:14:59.163Z,18
2017-08-16T14:16:03.541Z,17
2017-08-16T14:17:06.710Z,15
2017-08-16T14:18:09.061Z,17
2017-08-16T14:19:11.443Z,18
2017-08-16T14:20:13.937Z,16
2017-08-16T14:21:16.687Z,18
2017-08-16T14:22:19.446Z,18
2017-08-16T14:23:21.708Z,18
2017-08-16T14:24:23.809Z,16
2017-08-16T14:25:26.207Z,13
2017-08-16T14:26:28.575Z,17
2017-08-16T14:27:31.507Z,18
2017-08-16T14:28:33.957Z,18
2017-08-16T14:29:36.276Z,15
2017-08-16T14:30:38.640Z,17
2017-08-16T14:31:40.988Z,15
2017-08-16T14:32:43.852Z,15
2017-08-16T14:33:46.169Z,17
2017-08-16T14:34:48.531Z,17
2017-08-16T14:35:51.075Z,14
2017-08-16T14:36:53.439Z,17
2017-08-16T14:37:56.355Z,10
2017-08-16T14:38:58.778Z,18
2017-08-16T14:40:01.125Z,14
2017-08-16T14:41:03.517Z,16
2017-08-16T14:42:06.080Z,18
2017-08-16T14:43:08.864Z,17
2017-08-16T14:44:11.459Z,12
2017-08-16T14:45:13.808Z,17
2017-08-16T14:46:16.203Z,18
2017-08-16T14:47:18.541Z,17
2017-08-16T14:48:21.444Z,18
2017-08-16T14:49:23.270Z,18
2017-08-16T14:50:24.892Z,18
2017-08-16T14:51:26.553Z,18
2017-08-16T14:52:28.283Z,17
2017-08-16T14:53:30.537Z,17
2017-08-16T14:54:32.556Z,14
2017-08-16T14:55:34.435Z,18
2017-08-16T14:56:36.416Z,18
2017-08-16T14:57:38.000Z,12
2017-08-16T14:58:40.178Z,17
2017-08-16T14:59:41.843Z,18
2017-08-16T15:00:43.534Z,15
2017-08-16T15:01:45.161Z,18
2017-08-16T15:02:46.940Z,18
2017-08-16T15:03:49.244Z,15
2017-08-16T15:04:50.968Z,17
2017-08-16T15:05:52.903Z,14
2017-08-16T15:06:55.923Z,16
2017-08-16T15:07:57.703Z,14
2017-08-16T15:08:59.913Z,17
2017-08-16T15:10:01.524Z,17
2017-08-16T15:11:03.561Z,14
2017-08-16T15:12:05.217Z,17
2017-08-16T15:13:06.958Z,18
2017-08-16T15:14:09.639Z,17
2017-08-16T15:15:11.491Z,15
2017-08-16T15:16:13.124Z,12
2017-08-16T15:17:14.925Z,17
2017-08-16T15:18:16.652Z,17
2017-08-16T15:19:19.004Z,14
2017-08-16T15:20:20.762Z,17
2017-08-16T15:21:22.409Z,17
2017-08-16T15:22:24.105Z,16
2017-08-16T15:23:26.108Z,17
2017-08-16T15:24:28.375Z,17
2017-08-16T15:25:30.136Z,17
2017-08-16T15:26:31.951Z,17
2017-08-16T15:27:33.639Z,17
2017-08-16T15:28:35.243Z,17
2017-08-16T15:29:37.422Z,17
2017-08-16T15:30:39.021Z,11
2017-08-16T15:31:42.697Z,17
2017-08-16T15:32:44.428Z,17
2017-08-16T15:33:45.980Z,17
2017-08-16T15:34:48.426Z,17
2017-08-16T15:35:50.359Z,17
2017-08-16T15:36:52.170Z,15
2017-08-16T15:37:53.861Z,17
2017-08-16T15:38:55.585Z,15
2017-08-16T15:39:57.772Z,16
2017-08-16T15:40:03.165Z,10
2017-08-16T15:41:05.097Z,17
2017-08-16T15:42:06.567Z,15
2017-08-16T15:43:08.328Z,17
2017-08-16T15:44:10.111Z,13
2017-08-16T15:45:12.450Z,17
2017-08-16T15:46:14.290Z,17
2017-08-16T15:47:16.101Z,15
2017-08-16T15:48:17.731Z,17
2017-08-16T15:49:19.442Z,17
2017-08-16T15:50:21.696Z,17
2017-08-16T15:51:23.735Z,16
2017-08-16T15:52:25.364Z,13
2017-08-16T15:52:33.111Z,10
2017-08-16T15:53:34.843Z,17
2017-08-16T15:54:36.406Z,17
2017-08-16T15:55:38.506Z,15
2017-08-16T15:56:40.294Z,13
2017-08-16T15:57:41.962Z,17
2017-08-16T15:58:43.606Z,17
2017-08-16T15:59:45.346Z,17
2017-08-16T16:00:47.881Z,17
2017-08-16T16:01:49.829Z,17
2017-08-16T16:02:51.403Z,17
2017-08-16T16:03:53.342Z,15
2017-08-16T16:04:54.808Z,17
2017-08-16T16:05:57.006Z,17
2017-08-16T16:06:58.789Z,17
2017-08-16T16:08:00.580Z,17
2017-08-16T16:09:02.163Z,15
2017-08-16T16:10:03.764Z,17
2017-08-16T16:11:05.888Z,16
2017-08-16T16:12:07.404Z,17
2017-08-16T16:13:09.133Z,16
2017-08-16T16:14:10.825Z,17
2017-08-16T16:15:12.402Z,15
2017-08-16T16:16:14.483Z,17
2017-08-16T16:17:16.242Z,15
2017-08-16T16:18:17.865Z,13
2017-08-16T16:19:19.497Z,17
2017-08-16T16:20:00.702Z,17
2017-08-16T16:21:02.324Z,16
2017-08-16T16:22:04.464Z,15
2017-08-16T16:23:06.084Z,17
2017-08-16T16:24:08.367Z,16
2017-08-16T16:25:10.047Z,17
2017-08-16T16:26:11.982Z,16
2017-08-16T16:27:14.224Z,16
2017-08-16T16:28:15.821Z,17
2017-08-16T16:29:17.506Z,12
2017-08-16T16:30:19.105Z,16
2017-08-16T16:30:30.782Z,10
2017-08-16T16:31:32.500Z,12
2017-08-16T16:32:34.540Z,17
2017-08-16T16:33:36.279Z,17
2017-08-16T16:34:37.920Z,15
2017-08-16T16:34:45.643Z,10
2017-08-16T16:35:47.083Z,17
2017-08-16T16:36:48.677Z,12
2017-08-16T16:37:50.805Z,16
2017-08-16T16:38:52.443Z,12
2017-08-16T16:39:54.045Z,15
2017-08-16T16:40:53.805Z,16
2017-08-16T16:41:55.442Z,14
2017-08-16T16:42:57.452Z,16
2017-08-16T16:43:58.902Z,15
2017-08-16T16:45:00.600Z,16
2017-08-16T16:46:02.222Z,17
2017-08-16T16:47:03.962Z,15
2017-08-16T16:48:06.182Z,16
2017-08-16T16:49:07.781Z,15
2017-08-16T16:50:09.423Z,15
2017-08-16T16:51:11.144Z,16
2017-08-16T16:52:12.764Z,16
2017-08-16T16:53:15.304Z,16
2017-08-16T16:55:17.327Z,17
2017-08-16T16:56:19.164Z,13
2017-08-16T16:57:20.784Z,14
2017-08-16T16:59:22.639Z,16
2017-08-16T17:00:24.263Z,15
2017-08-16T17:00:31.983Z,9
2017-08-16T17:01:33.578Z,16
2017-08-16T17:02:35.195Z,12
2017-08-16T17:02:47.528Z,10
2017-08-16T17:03:49.887Z,15
2017-08-16T17:04:51.512Z,15
2017-08-16T17:05:53.178Z,16
2017-08-16T17:06:55.010Z,15
2017-08-16T17:07:58.365Z,14
2017-08-16T17:09:00.624Z,15
2017-08-16T17:10:02.564Z,15
2017-08-16T17:11:04.304Z,15
2017-08-16T17:12:05.990Z,15
2017-08-16T17:13:07.740Z,14
2017-08-16T17:13:12.941Z,10
2017-08-16T17:14:15.182Z,15
2017-08-16T17:14:23.179Z,10
2017-08-16T17:15:24.642Z,10
2017-08-16T17:16:26.265Z,15
2017-08-16T17:16:38.181Z,10
2017-08-16T17:16:43.511Z,10
2017-08-16T17:16:52.302Z,10
2017-08-16T17:17:53.942Z,15
2017-08-16T17:18:55.584Z,15
2017-08-16T17:19:58.017Z,14
2017-08-16T17:20:59.620Z,16
2017-08-16T17:21:07.536Z,10
2017-08-16T17:22:09.278Z,15
2017-08-16T17:23:10.982Z,15
2017-08-16T17:24:12.643Z,15
2017-08-16T17:25:14.783Z,16
2017-08-16T17:25:58.720Z,16
2017-08-16T17:26:04.108Z,10
2017-08-16T17:27:05.739Z,11
2017-08-16T17:28:07.298Z,15
2017-08-16T17:29:08.902Z,16
2017-08-16T17:30:10.365Z,10
2017-08-16T17:31:12.367Z,15
2017-08-16T17:32:13.961Z,16
2017-08-16T17:32:19.363Z,9
2017-08-16T17:33:20.904Z,15
2017-08-16T17:34:22.427Z,15
2017-08-16T17:34:34.117Z,10
2017-08-16T17:35:36.458Z,15
2017-08-16T17:36:38.258Z,14
2017-08-16T17:37:39.518Z,16
2017-08-16T17:38:41.359Z,12
2017-08-16T17:39:42.967Z,15
2017-08-16T17:40:45.603Z,15
2017-08-16T17:40:53.605Z,10
2017-08-16T17:41:55.219Z,15
2017-08-16T17:42:56.756Z,12
2017-08-16T17:43:04.679Z,10
2017-08-16T17:44:06.321Z,12
2017-08-16T17:45:07.899Z,14
2017-08-16T17:46:07.641Z,15
2017-08-16T17:47:07.506Z,13
2017-08-16T17:48:09.360Z,15
2017-08-16T17:49:10.881Z,15
2017-08-16T17:50:12.421Z,12
2017-08-16T18:39:21.144Z,15
2017-08-16T18:40:22.720Z,13
2017-08-16T18:41:26.075Z,15
2017-08-16T18:42:30.302Z,12
2017-08-16T18:43:32.807Z,12
2017-08-16T18:44:40.488Z,15
2017-08-16T18:45:46.828Z,15
2017-08-16T18:46:53.182Z,15
2017-08-16T18:47:54.781Z,11
2017-08-16T18:48:57.515Z,15
2017-08-16T18:50:01.049Z,15
2017-08-16T18:51:04.772Z,15
2017-08-16T18:52:06.015Z,15
2017-08-16T18:53:08.026Z,15
2017-08-16T18:54:11.704Z,10
2017-08-16T18:55:13.297Z,15
2017-08-16T18:56:14.985Z,12
2017-08-16T18:57:16.249Z,15
2017-08-16T18:58:17.583Z,14
2017-08-16T18:59:26.505Z,13
2017-08-16T19:00:29.792Z,15
2017-08-16T19:01:33.339Z,15
2017-08-16T19:02:36.703Z,14
2017-08-16T19:03:38.066Z,14
2017-08-16T19:04:39.761Z,15
2017-08-16T19:05:41.240Z,14
2017-08-16T19:06:42.547Z,15
2017-08-16T19:07:44.818Z,14
2017-08-16T19:08:48.263Z,14
2017-08-16T19:09:49.720Z,15
2017-08-16T19:10:52.370Z,15
2017-08-16T19:11:54.096Z,15
2017-08-16T19:12:55.839Z,15
2017-08-16T19:13:59.191Z,12
2017-08-16T19:15:06.093Z,14
2017-08-16T19:15:17.641Z,10
2017-08-16T19:16:23.636Z,13
2017-08-16T19:17:27.999Z,11
2017-08-16T19:18:31.600Z,11
2017-08-16T19:19:33.018Z,11
2017-08-16T19:19:42.038Z,10
2017-08-16T19:20:44.509Z,13
2017-08-16T19:21:46.598Z,14
2017-08-16T19:21:57.105Z,10
2017-08-16T19:22:58.792Z,14
2017-08-16T19:24:01.106Z,15
2017-08-16T19:25:02.640Z,14
2017-08-16T19:26:03.918Z,14
2017-08-16T19:27:06.116Z,15
2017-08-16T19:27:36.943Z,10
2017-08-16T19:29:37.678Z,14
2017-08-16T19:30:45.054Z,13
2017-08-16T19:31:50.869Z,13
2017-08-16T19:32:53.418Z,14
2017-08-16T19:33:54.601Z,13
2017-08-16T19:34:56.058Z,15
2017-08-16T19:35:58.138Z,14
2017-08-16T19:36:59.684Z,14
2017-08-16T19:38:02.000Z,14
2017-08-16T19:39:04.003Z,14
2017-08-16T19:40:09.285Z,14
2017-08-16T19:41:12.462Z,14
2017-08-16T19:42:11.063Z,13
2017-08-16T19:42:26.380Z,12
2017-08-16T19:42:49.099Z,12
2017-08-16T19:43:51.416Z,14
2017-08-16T19:44:53.442Z,11
2017-08-16T19:45:56.224Z,12
2017-08-16T19:46:59.822Z,14
2017-08-16T19:48:03.302Z,10
2017-08-16T19:48:11.116Z,13
2017-08-16T19:49:13.380Z,14
2017-08-16T19:50:15.457Z,13
2017-08-16T19:51:18.514Z,14
2017-08-16T19:52:20.503Z,13
2017-08-16T19:53:22.525Z,14
2017-08-16T19:54:33.519Z,14
2017-08-16T19:55:36.077Z,13
2017-08-16T19:56:37.501Z,14
2017-08-16T19:57:39.999Z,14
2017-08-16T19:58:43.884Z,13
2017-08-16T19:59:46.072Z,13
2017-08-16T19:59:54.727Z,10
2017-08-16T20:00:07.793Z,12
2017-08-16T20:00:59.644Z,10
2017-08-16T20:02:02.624Z,13
2017-08-16T20:03:07.140Z,13
2017-08-16T20:03:24.517Z,10
2017-08-16T20:04:31.159Z,13
2017-08-16T20:05:33.003Z,14
2017-08-16T20:06:35.831Z,12
2017-08-16T20:06:44.466Z,10
2017-08-16T20:06:53.981Z,10
2017-08-16T20:07:09.442Z,10
2017-08-16T20:07:15.256Z,12
2017-08-16T20:07:55.202Z,10
2017-08-16T20:08:09.724Z,10
2017-08-16T20:08:44.767Z,10
2017-08-16T20:09:46.316Z,13
2017-08-16T20:10:50.606Z,12
2017-08-16T20:11:55.422Z,10
2017-08-16T20:13:03.313Z,12
2017-08-16T20:14:05.551Z,13
2017-08-16T20:14:14.527Z,8
2017-08-16T20:15:15.804Z,13
2017-08-16T20:16:05.465Z,10
2017-08-16T20:17:09.463Z,11
2017-08-16T20:18:11.641Z,13
2017-08-16T20:19:15.675Z,12
2017-08-16T20:20:00.044Z,10
2017-08-16T20:21:01.409Z,13
2017-08-16T20:21:46.551Z,12
2017-08-16T20:21:55.520Z,10
2017-08-16T20:22:58.428Z,13
2017-08-16T20:24:00.515Z,12
2017-08-16T20:25:02.533Z,13
2017-08-16T20:26:03.981Z,13
2017-08-16T20:26:45.035Z,10
2017-08-16T20:27:30.620Z,10
2017-08-16T20:27:44.937Z,11
2017-08-16T20:28:48.454Z,12
2017-08-16T20:29:54.347Z,13
2017-08-16T20:30:57.665Z,13
2017-08-16T20:31:15.457Z,10
2017-08-16T20:32:16.822Z,10
2017-08-16T20:33:18.004Z,12
2017-08-16T20:34:19.267Z,13
2017-08-16T20:35:20.613Z,12
2017-08-16T20:36:22.865Z,12
2017-08-16T20:37:26.341Z,13
2017-08-16T20:38:12.714Z,10
2017-08-16T20:38:45.810Z,10
2017-08-16T20:39:49.488Z,13
2017-08-16T20:40:22.541Z,13
2017-08-16T20:41:23.990Z,11
2017-08-16T20:42:26.148Z,13
2017-08-16T20:43:21.284Z,10
2017-08-16T20:44:22.663Z,12
2017-08-16T20:45:24.744Z,13
2017-08-16T20:46:27.761Z,13
2017-08-16T20:47:29.690Z,12
2017-08-16T20:48:33.283Z,12
2017-08-16T20:49:35.957Z,12
2017-08-16T20:50:38.235Z,12
2017-08-16T20:50:46.640Z,10
2017-08-16T20:51:48.291Z,12
2017-08-16T20:52:46.702Z,10
2017-08-16T20:53:47.980Z,12
2017-08-16T20:54:11.429Z,10
2017-08-16T20:54:17.242Z,10
2017-08-16T20:55:18.284Z,13
2017-08-16T20:56:20.140Z,13
2017-08-16T20:57:22.181Z,13
2017-08-16T20:58:25.404Z,12
2017-08-16T20:59:31.071Z,12
2017-08-16T21:00:34.298Z,12
2017-08-16T21:01:35.706Z,10
2017-08-16T21:01:42.418Z,10
2017-08-16T21:01:56.984Z,10
2017-08-16T21:02:47.408Z,10
2017-08-16T21:03:32.044Z,10
2017-08-16T21:03:37.645Z,9
2017-08-16T21:04:39.129Z,12
2017-08-16T21:05:41.544Z,12
2017-08-16T21:06:43.679Z,12
2017-08-16T21:07:46.141Z,12
2017-08-16T21:08:14.041Z,12
2017-08-16T21:09:18.519Z,12
2017-08-16T21:09:37.048Z,10
2017-08-16T21:10:04.870Z,11
2017-08-16T21:11:07.025Z,12
2017-08-16T21:11:22.613Z,9
2017-08-16T21:11:53.050Z,9
2017-08-16T21:13:16.006Z,12
2017-08-16T21:13:58.204Z,10
2017-08-16T21:14:27.502Z,10
2017-08-16T21:14:33.103Z,10
2017-08-16T21:15:34.345Z,9
2017-08-16T21:15:44.584Z,12
2017-08-16T21:16:51.228Z,12
2017-08-16T21:17:03.061Z,10
2017-08-16T21:18:05.096Z,12
2017-08-16T21:19:13.522Z,12
2017-08-16T21:19:32.786Z,10
2017-08-16T21:20:33.165Z,10
2017-08-16T21:21:24.399Z,12
2017-08-16T21:22:26.263Z,12
2017-08-16T21:22:54.129Z,10
2017-08-16T21:23:03.314Z,9
2017-08-16T21:24:38.582Z,10
2017-08-16T21:25:41.489Z,11
2017-08-16T21:26:45.885Z,12
2017-08-16T21:27:46.958Z,12
2017-08-16T21:28:48.577Z,12
2017-08-16T21:29:50.012Z,11
2017-08-16T21:30:51.402Z,12
2017-08-16T21:31:08.783Z,8
2017-08-16T21:32:11.029Z,11
2017-08-16T21:33:10.673Z,11
2017-08-16T21:34:13.606Z,12
2017-08-16T21:34:38.643Z,10
2017-08-16T21:34:58.583Z,10
2017-08-16T21:35:59.703Z,11
2017-08-16T21:37:01.326Z,12
2017-08-16T21:38:02.814Z,12
2017-08-16T21:38:18.779Z,9
2017-08-16T21:39:09.006Z,8
2017-08-16T21:40:11.510Z,12
2017-08-16T21:41:15.361Z,12
2017-08-16T21:42:16.622Z,11
2017-08-16T21:43:18.208Z,12
2017-08-16T21:44:54.377Z,10
2017-08-16T21:45:55.561Z,12
2017-08-16T21:46:57.047Z,12
2017-08-16T21:47:49.349Z,10
2017-08-16T21:48:50.684Z,12
2017-08-16T21:49:00.688Z,8
2017-08-16T21:49:10.138Z,10
2017-08-16T21:50:12.345Z,12
2017-08-16T21:51:14.725Z,12
2017-08-16T21:52:17.714Z,12
2017-08-16T21:53:18.946Z,12
2017-08-16T21:54:09.637Z,10
2017-08-16T21:54:19.653Z,10
2017-08-16T21:54:27.181Z,11
2017-08-16T21:54:39.460Z,10
2017-08-16T21:55:41.008Z,12
2017-08-16T21:58:41.122Z,12
2017-08-16T21:59:38.505Z,11
2017-08-16T22:00:10.143Z,10
2017-08-16T22:00:15.802Z,8
2017-08-16T22:02:10.385Z,9
2017-08-16T22:02:50.129Z,9
2017-08-16T22:03:25.505Z,10
2017-08-16T22:04:28.893Z,12
2017-08-16T22:05:30.266Z,12
2017-08-16T22:06:31.844Z,12
2017-08-16T22:07:00.307Z,9
2017-08-16T22:08:01.884Z,12
2017-08-16T22:09:03.828Z,12
2017-08-16T22:10:06.039Z,12
2017-08-16T22:10:46.003Z,10
2017-08-16T22:11:48.434Z,12
2017-08-16T22:12:49.585Z,12
2017-08-16T22:13:45.946Z,10
2017-08-16T22:14:22.817Z,11
2017-08-16T22:15:23.848Z,12
2017-08-16T22:16:06.052Z,9
2017-08-16T22:16:21.439Z,9
2017-08-16T22:17:23.492Z,12
2017-08-16T22:18:24.896Z,12
2017-08-16T22:18:40.884Z,9
2017-08-16T22:19:42.611Z,10
2017-08-16T22:20:43.822Z,11
2017-08-16T22:21:45.405Z,11
2017-08-16T22:22:47.665Z,12
2017-08-16T22:23:48.739Z,12
2017-08-16T22:24:50.008Z,12
2017-08-16T22:25:11.249Z,9
2017-08-16T22:25:16.852Z,10
2017-08-16T22:25:26.020Z,10
2017-08-16T22:26:01.298Z,9
2017-08-16T22:26:31.309Z,9
2017-08-16T22:27:32.409Z,9
2017-08-16T22:28:34.337Z,11
2017-08-16T22:29:35.522Z,12
2017-08-16T22:30:11.988Z,9
2017-08-16T22:31:13.186Z,12
2017-08-16T22:31:41.539Z,10
2017-08-16T22:32:38.292Z,12
2017-08-16T22:33:40.372Z,12
2017-08-16T22:34:17.775Z,8
2017-08-16T22:34:31.637Z,10
2017-08-16T22:34:38.188Z,12
2017-08-16T22:35:39.380Z,11
2017-08-16T22:36:38.969Z,10
2017-08-16T22:36:47.366Z,10
2017-08-16T22:37:59.697Z,11
2017-08-16T22:39:03.215Z,8
2017-08-16T22:40:08.247Z,10
2017-08-16T22:40:47.357Z,10
2017-08-16T22:41:32.161Z,10
2017-08-16T22:43:33.225Z,11
2017-08-16T22:45:33.300Z,11
2017-08-16T22:45:42.425Z,8
2017-08-16T22:46:07.380Z,8
2017-08-16T22:46:12.923Z,8
2017-08-16T22:46:22.393Z,10
2017-08-16T22:46:32.342Z,8
2017-08-16T22:48:33.483Z,11
2017-08-16T22:48:57.459Z,8
2017-08-16T22:49:02.956Z,8
2017-08-16T22:50:04.431Z,12
2017-08-16T22:51:05.708Z,11
2017-08-16T22:51:22.688Z,8
2017-08-16T22:52:23.754Z,11
2017-08-16T22:53:25.641Z,12
2017-08-16T22:54:25.555Z,12
2017-08-16T22:55:27.613Z,12
2017-08-16T22:57:27.938Z,8
2017-08-16T22:58:38.285Z,10
2017-08-16T22:58:43.859Z,8
2017-08-16T22:59:28.335Z,10
2017-08-16T23:00:29.745Z,8
2017-08-16T23:00:38.042Z,10
2017-08-16T23:01:39.519Z,11
2017-08-16T23:02:08.505Z,9
2017-08-16T23:02:18.081Z,10
2017-08-16T23:02:28.028Z,10
2017-08-16T23:03:03.409Z,10
2017-08-16T23:04:04.664Z,11
2017-08-16T23:04:22.610Z,8
2017-08-16T23:05:23.654Z,12
2017-08-16T23:05:33.603Z,8
2017-08-16T23:06:35.089Z,11
2017-08-16T23:07:41.086Z,10
2017-08-16T23:08:09.952Z,8
2017-08-16T23:09:28.607Z,8
2017-08-16T23:10:29.676Z,12
2017-08-16T23:10:53.745Z,10
2017-08-16T23:11:08.642Z,10
2017-08-16T23:12:14.004Z,12
2017-08-16T23:12:53.821Z,10
2017-08-16T23:12:59.509Z,10
2017-08-16T23:14:00.960Z,11
2017-08-16T23:14:10.522Z,8
2017-08-16T23:15:15.131Z,7
2017-08-16T23:16:48.985Z,8
2017-08-16T23:16:55.006Z,7
2017-08-16T23:18:09.661Z,8
2017-08-16T23:18:28.902Z,8
2017-08-16T23:18:34.395Z,8
2017-08-16T23:19:24.137Z,10
2017-08-16T23:20:31.499Z,12
2017-08-16T23:21:10.559Z,8
2017-08-16T23:21:18.380Z,11
2017-08-16T23:21:39.462Z,9
2017-08-16T23:21:59.096Z,9
2017-08-16T23:22:54.346Z,10
2017-08-16T23:23:49.378Z,10
2017-08-16T23:23:59.683Z,10
2017-08-16T23:24:05.953Z,8
2017-08-16T23:24:23.443Z,11
2017-08-16T23:24:50.716Z,9
2017-08-16T23:25:29.424Z,9
2017-08-16T23:25:59.682Z,8
2017-08-16T23:26:24.799Z,10
2017-08-16T23:27:25.852Z,11
2017-08-16T23:27:59.651Z,10
2017-08-16T23:28:20.431Z,8
2017-08-16T23:28:49.669Z,8
2017-08-16T23:29:00.203Z,10
2017-08-16T23:29:31.307Z,10
2017-08-16T23:29:41.605Z,9
2017-08-16T23:30:20.460Z,10
2017-08-16T23:31:10.380Z,10
2017-08-16T23:32:11.941Z,11
2017-08-16T23:32:24.729Z,9
2017-08-16T23:32:32.117Z,11
2017-08-16T23:33:41.085Z,11
2017-08-16T23:35:00.005Z,10
2017-08-16T23:35:05.482Z,8
2017-08-16T23:35:15.107Z,10
2017-08-16T23:35:24.926Z,10
2017-08-16T23:35:34.810Z,10
2017-08-16T23:36:05.123Z,10
2017-08-16T23:36:10.678Z,10
2017-08-16T23:37:04.108Z,11
2017-08-16T23:37:21.047Z,10
2017-08-16T23:37:30.831Z,8
2017-08-16T23:38:31.943Z,11
2017-08-16T23:38:50.414Z,10
2017-08-16T23:39:00.012Z,10
2017-08-16T23:39:10.011Z,10
2017-08-16T23:39:15.443Z,8
2017-08-16T23:39:24.999Z,8
2017-08-16T23:39:35.201Z,10
2017-08-16T23:39:40.665Z,10
2017-08-16T23:40:42.394Z,11
2017-08-16T23:41:20.964Z,10
2017-08-16T23:42:05.602Z,8
2017-08-16T23:42:11.741Z,8
2017-08-16T23:42:31.881Z,10
2017-08-16T23:43:25.424Z,10
2017-08-16T23:43:31.023Z,8
2017-08-16T23:43:51.851Z,8
2017-08-16T23:44:26.919Z,11
2017-08-16T23:45:29.089Z,11
2017-08-16T23:45:40.602Z,10
2017-08-16T23:46:01.183Z,10
2017-08-16T23:46:36.768Z,11
2017-08-16T23:47:20.840Z,9
2017-08-16T23:47:27.475Z,9
2017-08-16T23:47:56.706Z,10
2017-08-16T23:48:40.765Z,9
2017-08-16T23:48:46.363Z,10
2017-08-16T23:50:11.038Z,7
2017-08-16T23:50:20.715Z,10
2017-08-16T23:50:35.523Z,10
2017-08-16T23:50:51.412Z,10
2017-08-16T23:50:57.413Z,8
2017-08-16T23:51:32.122Z,11
2017-08-16T23:52:55.844Z,10
2017-08-16T23:53:01.477Z,10
2017-08-16T23:53:10.744Z,10
2017-08-16T23:53:20.799Z,10
2017-08-16T23:53:30.662Z,9
2017-08-16T23:53:50.898Z,10
2017-08-16T23:54:00.859Z,8
2017-08-16T23:54:10.756Z,10
2017-08-16T23:54:20.685Z,10
2017-08-16T23:54:26.443Z,10
2017-08-16T23:54:45.916Z,10
2017-08-16T23:55:01.048Z,8
2017-08-16T23:55:06.501Z,10
2017-08-16T23:56:07.508Z,11
2017-08-16T23:57:08.696Z,11
2017-08-16T23:57:21.440Z,8
2017-08-16T23:58:35.152Z,11
2017-08-16T23:58:51.083Z,10
2017-08-16T23:58:56.621Z,10
2017-08-16T23:59:06.024Z,10
2017-08-16T23:59:21.402Z,10
2017-08-16T23:59:36.096Z,10
2017-08-16T23:59:51.749Z,10
